createdAt,value
2023-01-30T00:02:08.971Z,99262.69
2023-01-30T00:05:14.627Z,99258.31
2023-01-30T00:08:17.268Z,99248.97
2023-01-30T00:11:22.132Z,99242.06
2023-01-30T00:14:24.723Z,99223.03
2023-01-30T00:17:27.649Z,99219.41
2023-01-30T00:20:30.643Z,99205.50
2023-01-30T00:23:34.566Z,99200.81
2023-01-30T00:26:38.941Z,99203.06
2023-01-30T00:29:42.334Z,99216.41
2023-01-30T00:32:45.879Z,99221.59
2023-01-30T00:35:49.349Z,99200.97
2023-01-30T00:38:52.097Z,99187.41
2023-01-30T00:42:13.740Z,99185.84
2023-01-30T00:45:33.981Z,99193.59
2023-01-30T00:48:36.622Z,99192.19
2023-01-30T00:51:39.225Z,99210.19
2023-01-30T00:54:41.936Z,99218.22
2023-01-30T00:57:47.049Z,99232.03
2023-01-30T01:00:50.345Z,99237.91
2023-01-30T01:03:52.989Z,99255.28
2023-01-30T01:06:55.586Z,99267.19
2023-01-30T01:09:59.284Z,99286.53
2023-01-30T01:13:03.454Z,99288.91
2023-01-30T01:16:07.074Z,99286.13
2023-01-30T01:19:09.722Z,99274.13
2023-01-30T01:22:12.464Z,99277.13
2023-01-30T01:25:15.264Z,99274.19
2023-01-30T01:28:22.265Z,99293.72
2023-01-30T01:31:25.665Z,99290.38
2023-01-30T01:34:28.506Z,99296.69
2023-01-30T01:37:31.540Z,99299.75
2023-01-30T01:40:51.655Z,99298.38
2023-01-30T01:44:04.454Z,99277.16
2023-01-30T01:47:09.767Z,99270.91
2023-01-30T01:50:15.180Z,99269.41
2023-01-30T01:53:20.247Z,99274.28
2023-01-30T01:56:23.845Z,99283.09
2023-01-30T01:59:31.057Z,99287.22
2023-01-30T02:02:35.210Z,99265.75
2023-01-30T02:05:40.287Z,99280.09
2023-01-30T02:08:45.925Z,99288.44
2023-01-30T02:11:50.904Z,99292.72
2023-01-30T02:14:56.260Z,99289.84
2023-01-30T02:17:59.049Z,99282.94
2023-01-30T02:21:25.313Z,99269.88
2023-01-30T02:24:37.122Z,99259.81
2023-01-30T02:27:55.190Z,99256.75
2023-01-30T02:31:11.791Z,99245.88
2023-01-30T02:34:27.642Z,99229.13
2023-01-30T02:37:36.588Z,99245.13
2023-01-30T02:40:43.613Z,99258.50
2023-01-30T02:43:52.823Z,99260.22
2023-01-30T02:46:58.840Z,99223.63
2023-01-30T02:50:05.562Z,99208.09
2023-01-30T02:53:08.856Z,99217.72
2023-01-30T02:56:11.510Z,99238.94
2023-01-30T02:59:15.819Z,99226.22
2023-01-30T03:02:36.452Z,99203.03
2023-01-30T03:05:46.745Z,99209.72
2023-01-30T03:08:56.670Z,99196.56
2023-01-30T03:12:04.122Z,99173.03
2023-01-30T03:15:11.672Z,99169.06
2023-01-30T03:18:16.139Z,99167.25
2023-01-30T03:21:19.182Z,99151.47
2023-01-30T03:24:22.033Z,99137.06
2023-01-30T03:27:25.138Z,99105.22
2023-01-30T03:30:28.462Z,99070.81
2023-01-30T03:33:32.709Z,99075.63
2023-01-30T03:36:35.774Z,99060.03
2023-01-30T03:39:38.520Z,99065.75
2023-01-30T03:42:42.042Z,99061.69
2023-01-30T03:45:44.836Z,99072.72
2023-01-30T03:48:48.742Z,99079.47
2023-01-30T03:51:51.901Z,99072.47
2023-01-30T03:54:54.548Z,99081.19
2023-01-30T03:57:57.792Z,99119.03
2023-01-30T04:01:00.500Z,99113.84
2023-01-30T04:04:04.590Z,99108.16
2023-01-30T04:07:07.276Z,99095.47
2023-01-30T04:10:10.889Z,99107.00
2023-01-30T04:13:13.737Z,99114.06
2023-01-30T04:16:18.321Z,99098.81
2023-01-30T04:19:22.363Z,99104.19
2023-01-30T04:22:25.071Z,99103.13
2023-01-30T04:25:27.772Z,99101.00
2023-01-30T04:28:30.766Z,99088.63
2023-01-30T04:31:33.872Z,99097.09
2023-01-30T04:34:37.952Z,99094.16
2023-01-30T04:37:40.778Z,99086.66
2023-01-30T04:40:43.481Z,99088.28
2023-01-30T04:43:46.273Z,99085.94
2023-01-30T04:46:48.907Z,99087.88
2023-01-30T04:49:53.693Z,99093.34
2023-01-30T04:52:56.307Z,99102.09
2023-01-30T04:55:59.010Z,99075.94
2023-01-30T04:59:01.771Z,99095.03
2023-01-30T05:02:06.941Z,99071.56
2023-01-30T05:05:11.360Z,99073.25
2023-01-30T05:08:14.018Z,99072.44
2023-01-30T05:11:16.789Z,99065.94
2023-01-30T05:14:19.383Z,99064.25
2023-01-30T05:17:22.126Z,99066.25
2023-01-30T05:20:26.326Z,99057.88
2023-01-30T05:23:28.928Z,99045.28
2023-01-30T05:26:32.295Z,99044.97
2023-01-30T05:29:35.448Z,99042.78
2023-01-30T05:32:38.284Z,99039.16
2023-01-30T05:35:47.713Z,99033.44
2023-01-30T05:38:50.652Z,99035.50
2023-01-30T05:41:53.244Z,99024.09
2023-01-30T05:44:55.953Z,99019.34
2023-01-30T05:48:01.333Z,99017.66
2023-01-30T05:51:06.003Z,99028.88
2023-01-30T05:54:08.902Z,99041.56
2023-01-30T05:57:11.579Z,99042.16
2023-01-30T06:00:15.558Z,99038.50
2023-01-30T06:03:18.068Z,99037.41
2023-01-30T06:06:22.471Z,99047.72
2023-01-30T06:09:25.339Z,99041.66
2023-01-30T06:12:28.007Z,99028.88
2023-01-30T06:15:30.954Z,99047.28
2023-01-30T06:18:33.668Z,99035.38
2023-01-30T06:21:37.807Z,99032.22
2023-01-30T06:24:40.390Z,99030.41
2023-01-30T06:27:43.911Z,99026.69
2023-01-30T06:30:46.621Z,99010.13
2023-01-30T06:33:50.160Z,99007.25
2023-01-30T06:36:54.114Z,99006.44
2023-01-30T06:39:57.000Z,98996.09
2023-01-30T06:42:59.671Z,98990.28
2023-01-30T06:46:02.424Z,99000.84
2023-01-30T06:49:05.455Z,98996.44
2023-01-30T06:52:09.465Z,98987.34
2023-01-30T06:55:14.218Z,98986.94
2023-01-30T06:58:16.921Z,98981.59
2023-01-30T07:01:21.234Z,98995.47
2023-01-30T07:04:33.146Z,98985.16
2023-01-30T07:07:41.692Z,99005.84
2023-01-30T07:10:47.429Z,99014.84
2023-01-30T07:13:51.848Z,99022.69
2023-01-30T07:16:58.746Z,99022.78
2023-01-30T07:20:09.673Z,99037.84
2023-01-30T07:26:48.228Z,99035.69
2023-01-30T07:29:57.092Z,99030.91
2023-01-30T07:33:05.708Z,99042.50
2023-01-30T07:36:12.314Z,99048.41
2023-01-30T07:39:31.776Z,99040.56
2023-01-30T07:42:37.451Z,99052.75
2023-01-30T07:45:57.085Z,99070.31
2023-01-30T07:49:09.155Z,99058.94
2023-01-30T07:52:12.554Z,99068.25
2023-01-30T07:55:19.345Z,99058.97
2023-01-30T07:58:24.166Z,99048.13
2023-01-30T08:01:26.993Z,99042.75
2023-01-30T08:04:32.030Z,99032.31
2023-01-30T08:07:34.813Z,99030.53
2023-01-30T08:10:42.549Z,99031.88
2023-01-30T08:13:47.299Z,99044.94
2023-01-30T08:16:52.706Z,99061.59
2023-01-30T08:19:56.537Z,99081.13
2023-01-30T08:23:10.426Z,99090.47
2023-01-30T08:26:14.509Z,99060.16
2023-01-30T08:29:18.610Z,99054.38
2023-01-30T08:32:23.024Z,99053.97
2023-01-30T08:35:31.754Z,99031.78
2023-01-30T08:38:37.189Z,99008.50
2023-01-30T08:41:46.469Z,99027.41
2023-01-30T08:44:51.157Z,99014.78
2023-01-30T08:47:54.008Z,99005.84
2023-01-30T08:50:58.974Z,99005.28
2023-01-30T08:54:21.710Z,98999.94
2023-01-30T08:57:25.808Z,99006.47
2023-01-30T09:00:37.834Z,99003.84
2023-01-30T09:03:40.803Z,98980.84
2023-01-30T09:06:44.597Z,98980.09
2023-01-30T09:09:53.869Z,98947.59
2023-01-30T09:13:02.175Z,98952.56
2023-01-30T09:16:09.454Z,98955.50
2023-01-30T09:19:17.868Z,98956.66
2023-01-30T09:22:30.664Z,98965.69
2023-01-30T09:25:35.101Z,98962.47
2023-01-30T09:28:43.805Z,98966.03
2023-01-30T09:31:47.432Z,98962.00
2023-01-30T09:34:54.115Z,98966.88
2023-01-30T09:41:55.973Z,98973.34
2023-01-30T09:45:18.033Z,98973.59
2023-01-30T09:48:25.758Z,98962.81
2023-01-30T09:51:52.193Z,98952.00
2023-01-30T09:55:16.020Z,98951.25
2023-01-30T09:59:03.441Z,98942.06
2023-01-30T10:02:39.777Z,98909.50
2023-01-30T10:06:00.531Z,98902.13
2023-01-30T10:13:07.249Z,98909.28
2023-01-30T10:16:29.442Z,98882.19
2023-01-30T10:20:00.157Z,98884.72
2023-01-30T10:23:34.328Z,98877.78
2023-01-30T10:26:38.933Z,98872.22
2023-01-30T10:30:24.096Z,98879.09
2023-01-30T10:33:39.071Z,98876.81
2023-01-30T10:37:13.989Z,98883.81
2023-01-30T10:40:24.826Z,98867.41
2023-01-30T10:43:43.459Z,98892.41
2023-01-30T10:47:41.754Z,98863.88
2023-01-30T10:51:00.308Z,98871.06
2023-01-30T10:54:26.375Z,98874.22
2023-01-30T11:05:49.699Z,98882.19
2023-01-30T11:09:02.798Z,98878.38
2023-01-30T11:12:34.051Z,98882.34
2023-01-30T11:16:16.531Z,98882.16
2023-01-30T11:19:39.081Z,98886.38
2023-01-30T11:23:10.168Z,98883.13
2023-01-30T11:26:55.167Z,98873.94
2023-01-30T11:30:15.255Z,98866.25
2023-01-30T11:33:25.068Z,98870.66
2023-01-30T11:36:31.251Z,98870.31
2023-01-30T11:40:05.718Z,98878.22
2023-01-30T11:43:14.834Z,98884.38
2023-01-30T11:46:27.046Z,98895.53
2023-01-30T11:49:48.123Z,98900.41
2023-01-30T11:53:03.887Z,98899.06
2023-01-30T11:56:15.419Z,98890.41
2023-01-30T11:59:26.136Z,98874.72
2023-01-30T12:02:33.970Z,98877.66
2023-01-30T12:05:42.348Z,98876.84
2023-01-30T12:08:45.354Z,98872.03
2023-01-30T12:11:48.242Z,98869.88
2023-01-30T12:14:57.418Z,98865.00
2023-01-30T12:18:07.234Z,98856.66
2023-01-30T12:21:15.136Z,98862.06
2023-01-30T12:24:23.366Z,98866.66
2023-01-30T12:27:33.139Z,98857.22
2023-01-30T12:33:44.134Z,98861.25
2023-01-30T12:36:51.694Z,98867.47
2023-01-30T12:40:07.649Z,98862.31
2023-01-30T12:43:35.309Z,98867.19
2023-01-30T12:47:05.102Z,98876.66
2023-01-30T12:50:58.766Z,98875.03
2023-01-30T12:54:15.167Z,98885.56
2023-01-30T12:57:31.430Z,98896.91
2023-01-30T13:01:05.269Z,98902.31
2023-01-30T13:04:15.288Z,98901.75
2023-01-30T13:07:23.341Z,98911.75
2023-01-30T13:10:32.428Z,98903.34
2023-01-30T13:13:48.322Z,98902.28
2023-01-30T13:17:01.600Z,98881.78
2023-01-30T13:20:06.740Z,98892.31
2023-01-30T13:23:18.852Z,98900.94
2023-01-30T13:26:41.840Z,98897.44
2023-01-30T13:29:45.794Z,98897.69
2023-01-30T13:33:02.910Z,98903.81
2023-01-30T13:36:12.810Z,98916.03
2023-01-30T13:39:18.890Z,98901.41
2023-01-30T13:42:32.904Z,98930.59
2023-01-30T13:45:37.885Z,98931.88
2023-01-30T13:48:52.698Z,98941.56
2023-01-30T13:51:58.762Z,98949.09
2023-01-30T13:55:12.507Z,98962.75
2023-01-30T13:58:30.449Z,98963.56
2023-01-30T14:02:14.257Z,98955.72
2023-01-30T14:05:59.479Z,98971.34
2023-01-30T14:09:06.082Z,98966.44
2023-01-30T14:12:18.548Z,98967.78
2023-01-30T14:15:28.950Z,98963.81
2023-01-30T14:18:36.291Z,98960.59
2023-01-30T14:21:49.293Z,98956.31
2023-01-30T14:25:38.121Z,98965.69
2023-01-30T14:28:48.531Z,98978.59
2023-01-30T14:31:57.194Z,98972.78
2023-01-30T14:35:21.570Z,98966.03
2023-01-30T14:38:26.916Z,98968.16
2023-01-30T14:41:43.238Z,98974.31
2023-01-30T14:45:10.198Z,98982.53
2023-01-30T14:48:54.970Z,99001.19
2023-01-30T14:52:02.136Z,99008.09
2023-01-30T14:55:05.845Z,98997.75
2023-01-30T14:58:13.835Z,98996.59
2023-01-30T15:01:18.539Z,99006.16
2023-01-30T15:04:34.167Z,99015.56
2023-01-30T15:08:00.861Z,99051.16
2023-01-30T15:14:53.340Z,99041.91
2023-01-30T15:18:13.950Z,99050.22
2023-01-30T15:21:40.803Z,99043.34
2023-01-30T15:25:13.587Z,99053.31
2023-01-30T15:28:33.843Z,99053.06
2023-01-30T15:31:36.652Z,99058.69
2023-01-30T15:34:41.807Z,99050.81
2023-01-30T15:37:50.978Z,99042.47
2023-01-30T15:40:54.806Z,99045.44
2023-01-30T15:44:06.224Z,99059.53
2023-01-30T15:47:23.335Z,99054.19
2023-01-30T15:50:26.204Z,99053.66
2023-01-30T15:53:32.207Z,99050.41
2023-01-30T15:56:35.018Z,99045.59
2023-01-30T15:59:40.178Z,99048.00
2023-01-30T16:02:44.198Z,99045.59
2023-01-30T16:05:50.488Z,99054.50
2023-01-30T16:09:00.355Z,99064.53
2023-01-30T16:12:03.337Z,99068.03
2023-01-30T16:15:18.832Z,99074.50
2023-01-30T16:18:30.385Z,99076.94
2023-01-30T16:21:34.447Z,99074.25
2023-01-30T16:24:42.103Z,99076.66
2023-01-30T16:28:16.095Z,99087.75
2023-01-30T16:31:19.278Z,99083.19
2023-01-30T16:34:28.773Z,99097.50
2023-01-30T16:37:31.841Z,99109.66
2023-01-30T16:40:46.341Z,99113.72
2023-01-30T16:44:08.519Z,99137.22
2023-01-30T16:47:24.013Z,99136.72
2023-01-30T16:50:26.818Z,99139.97
2023-01-30T16:53:32.130Z,99143.75
2023-01-30T16:56:36.769Z,99142.66
2023-01-30T16:59:40.279Z,99148.91
2023-01-30T17:02:43.617Z,99138.84
2023-01-30T17:05:48.751Z,99143.47
2023-01-30T17:08:55.116Z,99150.75
2023-01-30T17:12:01.369Z,99145.06
2023-01-30T17:15:29.889Z,99152.03
2023-01-30T17:18:32.504Z,99149.28
2023-01-30T17:21:44.195Z,99164.72
2023-01-30T17:24:46.994Z,99159.84
2023-01-30T17:27:58.622Z,99169.03
2023-01-30T17:31:03.732Z,99179.84
2023-01-30T17:34:06.482Z,99184.16
2023-01-30T17:37:11.772Z,99199.25
2023-01-30T17:40:17.062Z,99201.91
2023-01-30T17:43:21.341Z,99205.91
2023-01-30T17:46:28.222Z,99201.06
2023-01-30T17:49:32.910Z,99206.41
2023-01-30T17:52:40.073Z,99207.72
2023-01-30T17:55:44.886Z,99213.69
2023-01-30T17:58:50.938Z,99220.47
2023-01-30T18:01:54.610Z,99226.38
2023-01-30T18:04:57.374Z,99232.84
2023-01-30T18:08:14.408Z,99239.59
2023-01-30T18:11:26.374Z,99232.28
2023-01-30T18:14:32.984Z,99242.03
2023-01-30T18:18:05.495Z,99240.19
2023-01-30T18:21:08.519Z,99253.72
2023-01-30T18:24:14.271Z,99257.22
2023-01-30T18:27:22.451Z,99253.50
2023-01-30T18:30:28.757Z,99257.59
2023-01-30T18:33:34.396Z,99266.81
2023-01-30T18:36:37.519Z,99271.66
2023-01-30T18:39:40.392Z,99277.41
2023-01-30T18:42:43.312Z,99279.09
2023-01-30T18:45:51.267Z,99285.69
2023-01-30T18:48:54.212Z,99297.84
2023-01-30T18:51:57.085Z,99296.25
2023-01-30T18:55:00.455Z,99304.34
2023-01-30T18:58:03.141Z,99304.59
2023-01-30T19:01:16.907Z,99305.19
2023-01-30T19:04:19.628Z,99313.31
2023-01-30T19:07:22.331Z,99310.00
2023-01-30T19:10:30.194Z,99306.06
2023-01-30T19:13:36.568Z,99313.56
2023-01-30T19:16:41.067Z,99316.25
2023-01-30T19:19:46.184Z,99330.19
2023-01-30T19:22:49.772Z,99333.09
2023-01-30T19:25:55.709Z,99353.47
2023-01-30T19:28:59.707Z,99358.94
2023-01-30T19:32:04.007Z,99361.53
2023-01-30T19:35:07.854Z,99360.50
2023-01-30T19:38:10.704Z,99373.78
2023-01-30T19:41:14.352Z,99368.63
2023-01-30T19:44:17.225Z,99370.53
2023-01-30T19:47:23.283Z,99348.41
2023-01-30T19:50:26.039Z,99344.59
2023-01-30T19:53:28.842Z,99342.47
2023-01-30T19:56:32.176Z,99360.91
2023-01-30T19:59:39.469Z,99361.47
2023-01-30T20:02:44.360Z,99368.50
2023-01-30T20:05:47.027Z,99379.63
2023-01-30T20:08:54.356Z,99381.78
2023-01-30T20:11:57.070Z,99394.19
2023-01-30T20:14:59.935Z,99390.22
2023-01-30T20:18:03.922Z,99382.66
2023-01-30T20:21:08.450Z,99397.47
2023-01-30T20:24:12.872Z,99402.69
2023-01-30T20:27:15.589Z,99410.81
2023-01-30T20:30:19.826Z,99416.41
2023-01-30T20:33:24.720Z,99427.00
2023-01-30T20:36:28.014Z,99422.72
2023-01-30T20:39:30.721Z,99417.47
2023-01-30T20:42:35.736Z,99411.88
2023-01-30T20:45:38.533Z,99415.13
2023-01-30T20:48:43.261Z,99418.72
2023-01-30T20:51:46.994Z,99422.91
2023-01-30T20:54:50.027Z,99427.59
2023-01-30T20:57:52.801Z,99423.53
2023-01-30T21:00:55.716Z,99434.13
2023-01-30T21:03:59.855Z,99430.31
2023-01-30T21:07:02.440Z,99429.25
2023-01-30T21:10:09.355Z,99431.44
2023-01-30T21:13:15.775Z,99441.44
2023-01-30T21:16:21.746Z,99448.44
2023-01-30T21:19:25.813Z,99440.88
2023-01-30T21:22:29.759Z,99440.38
2023-01-30T21:25:37.168Z,99445.72
2023-01-30T21:28:48.512Z,99444.97
2023-01-30T21:31:51.586Z,99441.44
2023-01-30T21:34:56.799Z,99443.38
2023-01-30T21:38:16.987Z,99449.91
2023-01-30T21:41:38.962Z,99452.88
2023-01-30T21:44:41.818Z,99453.09
2023-01-30T21:47:44.528Z,99457.16
2023-01-30T21:50:50.961Z,99456.09
2023-01-30T21:53:54.037Z,99462.03
2023-01-30T21:56:56.999Z,99473.63
2023-01-30T21:59:59.847Z,99472.03
2023-01-30T22:03:02.485Z,99473.59
2023-01-30T22:06:07.632Z,99468.75
2023-01-30T22:09:13.798Z,99469.78
2023-01-30T22:12:16.415Z,99473.59
2023-01-30T22:15:20.797Z,99472.78
2023-01-30T22:18:23.596Z,99474.91
2023-01-30T22:21:28.960Z,99476.84
2023-01-30T22:24:31.751Z,99474.63
2023-01-30T22:27:34.588Z,99485.13
2023-01-30T22:30:37.357Z,99474.94
2023-01-30T22:33:40.607Z,99481.38
2023-01-30T22:36:44.615Z,99483.00
2023-01-30T22:39:47.394Z,99481.97
2023-01-30T22:42:50.212Z,99484.66
2023-01-30T22:45:52.765Z,99469.22
2023-01-30T22:48:55.482Z,99467.59
2023-01-30T22:52:01.590Z,99487.09
2023-01-30T22:55:04.305Z,99487.66
2023-01-30T22:58:07.147Z,99490.81
2023-01-30T23:01:13.351Z,99482.72
2023-01-30T23:04:18.790Z,99483.00
2023-01-30T23:07:22.767Z,99478.38
2023-01-30T23:10:25.582Z,99485.47
2023-01-30T23:13:28.188Z,99480.59
2023-01-30T23:16:33.503Z,99477.38
2023-01-30T23:19:35.636Z,99485.38
2023-01-30T23:22:40.167Z,99488.72
2023-01-30T23:25:43.534Z,99481.63
2023-01-30T23:28:46.305Z,99483.00
2023-01-30T23:31:49.117Z,99487.06
2023-01-30T23:34:51.681Z,99479.47
2023-01-30T23:38:13.127Z,99486.50
2023-01-30T23:41:17.111Z,99487.03
2023-01-30T23:44:20.017Z,99483.78
2023-01-30T23:47:22.578Z,99494.88
2023-01-30T23:50:25.164Z,99497.22
2023-01-30T23:53:29.313Z,99489.16
2023-01-30T23:56:34.048Z,99485.38
2023-01-30T23:59:37.389Z,99479.69
